Time;durP1;ratioP1;P1;durP2;ratioP2;P2;SDS_P1;SDS_P2;PMS_P1;PMS_P2;Temp;Humidity;BMP_temperature;BMP_pressure;BME280_temperature;BME280_humidity;BME280_pressure;Samples;Min_cycle;Max_cycle;Signal;HPM_P1;HPM_P2
2023/10/20 00:12:56;;;;;;;6.00;3.50;;;;;;;12.81;100.00;95724.34;1224003;75;2918603;-70
2023/10/20 00:15:28;;;;;;;5.45;3.95;;;;;;;12.72;100.00;95698.09;1209010;75;4082560;-75
2023/10/20 00:18:01;;;;;;;5.50;4.40;;;;;;;12.60;100.00;95691.41;1209091;75;3936421;-74
2023/10/20 00:20:34;;;;;;;3.95;3.40;;;;;;;12.66;100.00;95703.00;1223194;75;2959819;-74
2023/10/20 00:23:07;;;;;;;4.30;3.40;;;;;;;12.86;100.00;95679.53;1218659;75;3081176;-72
2023/10/20 00:25:40;;;;;;;3.15;2.50;;;;;;;12.88;100.00;95666.00;1224875;75;2925208;-74
2023/10/20 00:28:15;;;;;;;3.60;2.60;;;;;;;12.98;100.00;95673.19;1221822;75;3000461;-75
2023/10/20 00:30:47;;;;;;;2.30;1.90;;;;;;;13.01;100.00;95682.34;1221859;75;2942596;-74
2023/10/20 00:33:20;;;;;;;1.60;1.50;;;;;;;12.93;100.00;95678.84;1224694;75;2925352;-72
2023/10/20 00:35:53;;;;;;;2.20;1.80;;;;;;;12.92;100.00;95664.38;1224019;75;2919481;-73
2023/10/20 00:38:25;;;;;;;1.90;1.65;;;;;;;12.98;100.00;95664.94;1209528;75;3908959;-73
2023/10/20 00:40:58;;;;;;;2.15;1.30;;;;;;;13.07;100.00;95652.00;1223777;75;2920606;-73
2023/10/20 00:43:41;;;;;;;1.70;1.30;;;;;;;13.24;100.00;95648.78;1224900;75;2915705;-75
2023/10/20 00:46:13;;;;;;;1.70;1.30;;;;;;;13.22;100.00;95652.81;1210018;75;4041538;-75
2023/10/20 00:48:46;;;;;;;1.90;1.25;;;;;;;13.21;100.00;95634.13;1224224;75;2915604;-73
2023/10/20 00:51:21;;;;;;;2.00;1.40;;;;;;;13.19;100.00;95626.41;1222304;75;2922628;-73
2023/10/20 00:53:55;;;;;;;2.70;1.50;;;;;;;13.12;100.00;95634.63;1218180;75;3050189;-72
2023/10/20 00:56:29;;;;;;;2.50;1.50;;;;;;;13.20;100.00;95636.16;1223942;75;2920915;-72
2023/10/20 00:59:06;;;;;;;3.35;2.35;;;;;;;13.19;100.00;95642.19;1223578;75;2920378;-74
2023/10/20 01:01:38;;;;;;;2.30;1.85;;;;;;;13.27;100.00;95642.97;1221276;75;2924448;-73
2023/10/20 01:04:11;;;;;;;3.10;2.10;;;;;;;13.15;100.00;95644.53;1197775;75;3952041;-71
2023/10/20 01:06:44;;;;;;;2.40;2.00;;;;;;;13.27;100.00;95633.97;1223423;75;2917209;-72
2023/10/20 01:09:25;;;;;;;2.65;1.60;;;;;;;13.45;100.00;95626.75;1222801;75;2919618;-73
2023/10/20 01:11:58;;;;;;;2.15;1.40;;;;;;;13.46;100.00;95617.22;1221579;75;3023983;-75
2023/10/20 01:14:35;;;;;;;5.50;2.60;;;;;;;13.10;100.00;95626.19;1221423;75;2955823;-74
2023/10/20 01:17:09;;;;;;;4.20;2.70;;;;;;;13.27;100.00;95626.47;1216581;75;3113952;-75
2023/10/20 01:19:42;;;;;;;4.80;2.55;;;;;;;13.12;100.00;95634.63;1205205;75;3835252;-74
2023/10/20 01:22:15;;;;;;;5.40;3.70;;;;;;;13.02;100.00;95623.41;1209368;75;3939189;-72
2023/10/20 01:24:50;;;;;;;4.35;3.25;;;;;;;13.21;100.00;95610.13;1219977;75;3037174;-72
2023/10/20 01:27:23;;;;;;;4.15;2.85;;;;;;;13.34;100.00;95623.03;1224987;75;2923124;-74
2023/10/20 01:29:56;;;;;;;3.00;2.60;;;;;;;13.42;100.00;95625.78;1224141;75;2917920;-75
2023/10/20 01:32:28;;;;;;;2.40;1.95;;;;;;;13.47;100.00;95626.91;1208321;75;4057056;-72
2023/10/20 01:35:01;;;;;;;4.80;3.05;;;;;;;13.18;100.00;95630.44;1219217;75;3029453;-72
2023/10/20 01:37:34;;;;;;;3.30;1.80;;;;;;;13.42;100.00;95626.56;1224651;75;2918401;-75
2023/10/20 01:40:12;;;;;;;2.05;1.85;;;;;;;13.38;100.00;95608.94;1220218;75;3066556;-73
2023/10/20 01:42:45;;;;;;;5.80;3.00;;;;;;;12.93;100.00;95601.94;1224319;75;2919472;-72
2023/10/20 01:45:17;;;;;;;5.20;4.10;;;;;;;13.16;100.00;95610.31;1222286;75;2962371;-73
2023/10/20 01:47:50;;;;;;;3.45;2.90;;;;;;;13.26;100.00;95613.25;1222524;75;3020833;-72
2023/10/20 01:50:23;;;;;;;2.50;2.05;;;;;;;13.41;100.00;95597.56;1222494;75;2915512;-72
2023/10/20 01:52:56;;;;;;;3.30;2.30;;;;;;;13.08;100.00;95598.53;1221962;75;3025983;-72
2023/10/20 01:55:31;;;;;;;3.20;2.60;;;;;;;13.09;100.00;95600.75;1224394;75;2920074;-72
2023/10/20 01:58:03;;;;;;;3.50;2.20;;;;;;;13.22;100.00;95595.09;1216940;75;3053552;-71
2023/10/20 02:00:38;;;;;;;4.00;3.55;;;;;;;12.78;100.00;95586.84;1219062;75;3099243;-74
2023/10/20 02:03:11;;;;;;;4.45;3.45;;;;;;;13.13;100.00;95581.16;1202617;75;3883837;-72
2023/10/20 02:05:43;;;;;;;3.05;2.65;;;;;;;13.20;100.00;95583.19;1219755;75;3015883;-73
2023/10/20 02:08:16;;;;;;;4.60;3.20;;;;;;;12.82;100.00;95561.81;1208730;75;4096767;-74
2023/10/20 02:10:51;;;;;;;4.90;3.60;;;;;;;12.91;100.00;95568.78;1223705;75;2932649;-76
2023/10/20 02:13:24;;;;;;;3.80;3.00;;;;;;;13.11;100.00;95561.75;1222218;75;3011421;-74
2023/10/20 02:15:57;;;;;;;4.05;2.95;;;;;;;12.93;100.00;95569.72;1221975;75;3009688;-73
2023/10/20 02:18:30;;;;;;;4.00;2.95;;;;;;;12.80;100.00;95572.59;1206558;75;4004966;-73
2023/10/20 02:21:05;;;;;;;5.40;3.95;;;;;;;12.58;100.00;95582.91;1221474;75;2964501;-74
2023/10/20 02:23:39;;;;;;;4.35;3.15;;;;;;;12.88;100.00;95567.13;1220219;75;3101624;-73
2023/10/20 02:26:14;;;;;;;3.75;3.05;;;;;;;12.92;100.00;95571.00;1220676;75;3079080;-72
2023/10/20 02:28:47;;;;;;;4.20;3.05;;;;;;;12.99;100.00;95570.31;1207830;75;3949718;-74
2023/10/20 02:31:21;;;;;;;3.85;2.85;;;;;;;12.99;100.00;95559.31;1219148;75;2970302;-72
2023/10/20 02:33:53;;;;;;;4.10;2.40;;;;;;;12.99;100.00;95570.31;1207440;75;4005847;-72
2023/10/20 02:36:27;;;;;;;5.25;3.25;;;;;;;12.89;100.00;95563.84;1224461;75;2919532;-75
2023/10/20 02:38:59;;;;;;;3.95;2.50;;;;;;;13.00;100.00;95555.28;1222438;75;2947364;-74
2023/10/20 02:41:35;;;;;;;3.50;2.45;;;;;;;13.10;100.00;95561.00;1221327;75;3036076;-74
2023/10/20 02:44:09;;;;;;;3.35;2.20;;;;;;;13.17;100.00;95562.31;1223116;75;2926931;-71
2023/10/20 02:46:41;;;;;;;3.40;2.05;;;;;;;13.11;100.00;95581.72;1208883;75;3789858;-74
2023/10/20 02:49:14;;;;;;;2.55;1.90;;;;;;;13.20;100.00;95586.69;1212695;75;3791024;-72
2023/10/20 02:51:47;;;;;;;5.25;3.00;;;;;;;12.81;100.00;95590.53;1223795;75;2917029;-74
2023/10/20 02:54:20;;;;;;;3.85;3.15;;;;;;;12.84;100.00;95592.19;1224635;75;2919405;-72
2023/10/20 02:56:55;;;;;;;3.00;2.40;;;;;;;12.95;100.00;95599.38;1206996;75;4019789;-74
2023/10/20 02:59:27;;;;;;;5.70;3.30;;;;;;;12.58;100.00;95588.41;1223110;75;2917508;-74
2023/10/20 03:02:00;;;;;;;4.45;3.60;;;;;;;12.53;100.00;95574.81;1222355;75;2938524;-71
2023/10/20 03:04:33;;;;;;;5.30;3.95;;;;;;;12.46;100.00;95567.25;1224122;75;2919026;-73
2023/10/20 03:07:06;;;;;;;4.10;3.15;;;;;;;12.76;100.00;95569.44;1209498;75;3833841;-73
2023/10/20 03:09:38;;;;;;;4.75;3.15;;;;;;;12.60;100.00;95565.16;1221734;75;2970047;-73
2023/10/20 03:12:13;;;;;;;4.75;3.80;;;;;;;12.57;100.00;95561.47;1220560;75;2978624;-73
2023/10/20 03:14:47;;;;;;;4.40;3.10;;;;;;;12.72;100.00;95563.56;1224467;75;2922348;-74
2023/10/20 03:17:20;;;;;;;4.85;3.30;;;;;;;12.64;100.00;95560.06;1222634;75;2921697;-74
2023/10/20 03:19:53;;;;;;;4.30;3.30;;;;;;;12.73;100.00;95551.31;1221922;75;2924847;-75
2023/10/20 03:22:25;;;;;;;3.85;2.80;;;;;;;12.87;100.00;95547.19;1223829;75;2926201;-75
2023/10/20 03:24:58;;;;;;;4.40;2.80;;;;;;;12.95;100.00;95553.44;1222592;75;2921408;-74
2023/10/20 03:27:34;;;;;;;4.50;2.80;;;;;;;12.81;100.00;95548.59;1223979;75;2918901;-73
2023/10/20 03:30:08;;;;;;;4.50;3.20;;;;;;;12.77;100.00;95541.47;1220627;75;3067322;-75
2023/10/20 03:32:41;;;;;;;3.30;2.70;;;;;;;12.88;100.00;95534.91;1223232;75;2926626;-74
2023/10/20 03:35:14;;;;;;;2.65;2.20;;;;;;;12.89;100.00;95530.16;1224105;75;2924864;-75
2023/10/20 03:37:46;;;;;;;2.60;1.85;;;;;;;13.07;100.00;95534.63;1223757;75;2930702;-72
2023/10/20 03:40:20;;;;;;;2.35;1.75;;;;;;;13.11;100.00;95546.00;1223085;75;2926904;-75
2023/10/20 03:42:55;;;;;;;2.20;1.80;;;;;;;12.97;100.00;95548.13;1223339;83;2926719;-72
2023/10/20 03:45:28;;;;;;;4.40;2.80;;;;;;;12.76;100.00;95536.50;1223191;75;2923088;-73
2023/10/20 03:48:01;;;;;;;3.80;3.05;;;;;;;12.96;100.00;95541.19;1224354;75;2921430;-73
2023/10/20 03:50:35;;;;;;;3.85;3.05;;;;;;;12.88;100.00;95542.41;1209515;75;3853882;-74
2023/10/20 03:53:11;;;;;;;5.00;3.55;;;;;;;12.56;100.00;95524.34;1223953;75;2929714;-73
2023/10/20 03:55:44;;;;;;;4.20;3.20;;;;;;;12.88;100.00;95529.41;1222577;75;2923502;-71
2023/10/20 03:58:19;;;;;;;4.20;2.55;;;;;;;12.85;100.00;95513.31;1223018;75;2914517;-75
2023/10/20 04:00:57;;;;;;;4.30;3.20;;;;;;;12.93;100.00;95503.81;1220811;75;2974592;-73
2023/10/20 04:03:30;;;;;;;4.40;3.50;;;;;;;12.96;100.00;95508.22;1222940;75;2925335;-74
2023/10/20 04:06:04;;;;;;;3.40;2.90;;;;;;;12.90;100.00;95515.88;1221574;75;2924878;-74
2023/10/20 04:08:36;;;;;;;4.00;2.95;;;;;;;13.04;100.00;95519.22;1220384;75;3031386;-73
2023/10/20 04:11:09;;;;;;;4.55;3.10;;;;;;;13.16;100.00;95519.63;1222423;75;2930383;-73
2023/10/20 04:13:44;;;;;;;13.70;6.05;;;;;;;12.96;100.00;95515.72;1219594;75;3005461;-74
2023/10/20 04:16:18;;;;;;;6.20;5.05;;;;;;;13.11;100.00;95504.78;1220954;75;3099529;-71
2023/10/20 04:18:51;;;;;;;11.10;8.95;;;;;;;13.18;100.00;95500.56;1220281;75;3082552;-72
2023/10/20 04:21:25;;;;;;;8.60;7.70;;;;;;;13.15;100.00;95498.94;1223490;75;2920668;-71
2023/10/20 04:23:57;;;;;;;9.25;7.75;;;;;;;13.12;100.00;95494.53;1223267;75;2921191;-73
2023/10/20 04:26:31;;;;;;;11.70;9.20;;;;;;;12.93;100.00;95483.84;1224282;75;2921054;-72
2023/10/20 04:29:23;;;;;;;9.00;7.25;;;;;;;12.84;100.00;95482.34;1220280;75;2968716;-73
2023/10/20 04:54:45;;;;;;;8.80;6.25;;;;;;;13.20;100.00;95437.56;1252222;75;2806048;-68
2023/10/20 04:57:28;;;;;;;5.30;4.70;;;;;;;13.18;100.00;95440.88;1225663;75;2921150;-70
2023/10/20 05:00:31;;;;;;;7.35;5.15;;;;;;;13.17;100.00;95444.91;1224883;75;2925114;-69
2023/10/20 05:03:15;;;;;;;6.75;4.05;;;;;;;13.25;100.00;95441.44;1226282;75;2918826;-70
2023/10/20 05:05:53;;;;;;;5.65;3.85;;;;;;;13.35;100.00;95434.16;1226297;75;2918939;-71
2023/10/20 05:08:26;;;;;;;5.70;4.10;;;;;;;13.31;100.00;95428.28;1226258;75;2923262;-70
2023/10/20 05:11:02;;;;;;;5.60;3.95;;;;;;;13.59;100.00;95435.63;1225200;75;2927179;-70
2023/10/20 05:13:35;;;;;;;5.85;3.60;;;;;;;13.69;100.00;95422.78;1225675;75;2921867;-71
2023/10/20 05:16:09;;;;;;;5.20;4.15;;;;;;;13.59;100.00;95411.63;1223614;75;2922198;-70
2023/10/20 05:18:42;;;;;;;4.45;3.10;;;;;;;13.76;100.00;95416.56;1210121;75;4059949;-73
2023/10/20 05:21:15;;;;;;;5.75;4.10;;;;;;;13.48;100.00;95414.72;1224218;75;2924997;-70
2023/10/20 05:23:49;;;;;;;7.80;3.15;;;;;;;13.74;100.00;95404.66;1225424;75;2924779;-71
2023/10/20 05:26:25;;;;;;;3.70;3.10;;;;;;;13.66;100.00;95409.41;1221012;75;3065721;-70
2023/10/20 05:28:57;;;;;;;3.75;2.90;;;;;;;13.81;100.00;95431.41;1212789;75;3893822;-70
2023/10/20 05:31:31;;;;;;;5.25;3.10;;;;;;;13.75;100.00;95417.09;1225963;75;2924272;-69
2023/10/20 05:34:04;;;;;;;5.80;3.65;;;;;;;13.73;100.00;95425.88;1224237;75;2930791;-70
2023/10/20 05:36:37;;;;;;;7.10;3.40;;;;;;;13.75;100.00;95419.84;1225614;75;2919584;-70
2023/10/20 05:39:10;;;;;;;5.15;2.95;;;;;;;13.84;100.00;95416.53;1223843;75;2915904;-70
2023/10/20 05:41:48;;;;;;;8.75;4.25;;;;;;;14.12;100.00;95434.06;1225312;75;2922795;-71
2023/10/20 05:44:22;;;;;;;5.95;3.90;;;;;;;14.05;100.00;95424.56;1225443;75;2928630;-70
2023/10/20 05:46:55;;;;;;;9.50;6.25;;;;;;;13.95;100.00;95431.91;1223298;75;3033803;-71
2023/10/20 05:49:27;;;;;;;7.90;5.10;;;;;;;13.85;100.00;95438.00;1224638;75;2921414;-72
2023/10/20 05:52:00;;;;;;;9.55;4.90;;;;;;;14.06;100.00;95426.03;1222583;75;3012890;-70
2023/10/20 05:54:33;;;;;;;6.50;3.75;;;;;;;14.48;100.00;95423.53;1222006;75;3046833;-70
2023/10/20 05:57:08;;;;;;;5.55;3.70;;;;;;;14.38;100.00;95428.16;1224655;75;2919166;-72
2023/10/20 05:59:43;;;;;;;9.05;4.15;;;;;;;14.19;100.00;95420.31;1225266;75;2921599;-70
2023/10/20 06:02:16;;;;;;;9.70;4.30;;;;;;;14.10;100.00;95428.41;1226011;75;2922933;-69
2023/10/20 06:04:48;;;;;;;13.00;4.65;;;;;;;14.09;100.00;95435.19;1224712;75;2932736;-70
2023/10/20 06:07:21;;;;;;;10.80;4.80;;;;;;;14.21;100.00;95420.47;1225017;75;2919479;-73
2023/10/20 06:09:54;;;;;;;10.65;4.20;;;;;;;14.32;100.00;95418.63;1223588;75;2927414;-71
2023/10/20 06:12:29;;;;;;;6.65;3.95;;;;;;;14.55;100.00;95415.81;1220822;75;3032716;-71
2023/10/20 06:15:02;;;;;;;7.20;3.85;;;;;;;14.64;100.00;95410.44;1223777;75;2921409;-73
2023/10/20 06:17:35;;;;;;;7.70;4.20;;;;;;;14.85;100.00;95398.41;1223029;75;2919797;-70
2023/10/20 06:20:10;;;;;;;8.70;4.40;;;;;;;14.76;100.00;95394.22;1223072;75;2921102;-70
2023/10/20 06:22:44;;;;;;;6.30;3.45;;;;;;;14.94;100.00;95386.78;1223527;75;2929369;-71
2023/10/20 06:25:16;;;;;;;10.20;3.80;;;;;;;15.83;100.00;95380.97;1222648;75;2921391;-69
2023/10/20 06:27:52;;;;;;;9.40;4.30;;;;;;;16.63;100.00;95360.34;1220075;75;3004978;-70
2023/10/20 06:30:24;;;;;;;11.35;3.95;;;;;;;17.81;100.00;95349.16;1217157;75;3103282;-69
2023/10/20 06:33:15;;;;;;;10.55;3.65;;;;;;;18.14;100.00;95334.19;1185601;75;5638232;-74
2023/10/20 06:35:52;;;;;;;11.30;3.70;;;;;;;18.36;100.00;95332.25;1223908;75;2921920;-74
2023/10/20 06:38:30;;;;;;;9.30;3.35;;;;;;;18.70;100.00;95326.34;1223273;75;2931030;-70
2023/10/20 06:41:03;;;;;;;7.50;2.70;;;;;;;18.78;100.00;95328.97;1219453;75;3075390;-71
2023/10/20 06:43:39;;;;;;;9.25;3.15;;;;;;;18.93;100.00;95328.66;1223663;75;2926161;-70
2023/10/20 06:46:11;;;;;;;7.00;2.90;;;;;;;18.95;100.00;95333.59;1223950;75;2927281;-72
2023/10/20 06:48:44;;;;;;;10.30;3.00;;;;;;;19.16;100.00;95339.19;1222954;75;2929768;-71
2023/10/20 06:51:17;;;;;;;6.80;2.55;;;;;;;19.16;100.00;95338.47;1222380;75;2926589;-71
2023/10/20 06:53:49;;;;;;;13.90;4.10;;;;;;;19.05;100.00;95339.09;1222484;75;2921434;-70
2023/10/20 06:56:22;;;;;;;7.30;3.25;;;;;;;19.27;100.00;95348.94;1223496;75;2930981;-71
2023/10/20 06:58:57;;;;;;;7.95;3.35;;;;;;;19.31;100.00;95342.91;1221966;75;2950704;-71
2023/10/20 07:01:32;;;;;;;10.00;3.00;;;;;;;19.45;100.00;95323.72;1223880;75;2929983;-70
2023/10/20 07:04:06;;;;;;;7.05;2.20;;;;;;;19.58;100.00;95320.44;1221460;75;3044152;-70
2023/10/20 07:06:40;;;;;;;13.20;3.10;;;;;;;19.65;98.57;95318.78;1223140;75;2943419;-73
2023/10/20 07:09:14;;;;;;;8.55;2.40;;;;;;;19.72;97.83;95329.72;1221441;75;2922142;-70
2023/10/20 07:11:48;;;;;;;11.10;2.70;;;;;;;19.80;96.51;95335.06;1223400;75;2929469;-71
2023/10/20 07:14:23;;;;;;;12.30;3.20;;;;;;;19.83;95.27;95333.16;1223241;75;2926683;-73
2023/10/20 07:16:55;;;;;;;9.70;2.80;;;;;;;19.70;98.21;95331.63;1224654;75;2922564;-72
2023/10/20 07:19:28;;;;;;;11.00;2.60;;;;;;;19.91;94.51;95344.78;1222153;75;2920892;-73
2023/10/20 07:22:02;;;;;;;12.10;2.40;;;;;;;19.97;93.67;95334.06;1223214;75;2929418;-70
2023/10/20 07:24:36;;;;;;;9.15;2.60;;;;;;;19.90;94.00;95346.13;1218235;75;3100106;-71
2023/10/20 07:27:08;;;;;;;7.30;3.15;;;;;;;19.87;94.35;95344.53;1223971;75;2924259;-73
2023/10/20 07:29:44;;;;;;;10.75;3.10;;;;;;;19.94;93.20;95363.78;1223733;75;2926671;-72
2023/10/20 07:32:16;;;;;;;8.05;2.30;;;;;;;20.00;92.32;95366.19;1224068;75;2920783;-70
2023/10/20 07:34:49;;;;;;;8.15;1.95;;;;;;;20.09;91.81;95353.59;1224245;75;2926292;-69
2023/10/20 07:37:22;;;;;;;8.75;2.35;;;;;;;20.09;91.06;95340.41;1222893;75;2928881;-74
2023/10/20 07:39:54;;;;;;;9.70;2.10;;;;;;;20.09;91.20;95356.34;1223813;75;2920652;-69
2023/10/20 07:42:27;;;;;;;7.20;2.95;;;;;;;20.19;90.13;95337.56;1222248;75;2919985;-71
2023/10/20 07:45:03;;;;;;;7.80;2.40;;;;;;;20.26;90.60;95333.84;1215895;75;3110610;-72
2023/10/20 07:47:35;;;;;;;13.60;2.85;;;;;;;20.04;92.78;95322.03;1223601;75;2925703;-71
2023/10/20 07:50:09;;;;;;;9.30;2.65;;;;;;;20.20;92.05;95319.56;1220228;75;2975284;-70
2023/10/20 07:52:42;;;;;;;14.55;2.70;;;;;;;20.22;91.70;95325.97;1217953;75;2935110;-71
2023/10/20 07:55:14;;;;;;;9.75;2.75;;;;;;;20.14;92.45;95322.69;1223500;75;2922265;-72
2023/10/20 07:57:47;;;;;;;7.75;2.55;;;;;;;20.30;91.21;95302.78;1223169;75;2931404;-71
2023/10/20 08:00:24;;;;;;;12.75;3.10;;;;;;;20.19;92.57;95293.81;1222414;75;2960502;-70
2023/10/20 08:02:56;;;;;;;13.35;2.75;;;;;;;20.15;93.34;95315.06;1222729;75;2954754;-73
2023/10/20 08:05:29;;;;;;;11.00;3.00;;;;;;;20.28;93.17;95306.19;1223685;75;2924345;-71
2023/10/20 08:08:01;;;;;;;15.15;3.00;;;;;;;20.22;92.79;95289.84;1187118;75;5802823;-73
2023/10/20 08:10:35;;;;;;;8.90;2.40;;;;;;;20.22;93.22;95275.22;1221953;75;2926777;-70
2023/10/20 08:13:09;;;;;;;9.70;2.80;;;;;;;20.35;92.23;95265.63;1223285;75;2921527;-70
2023/10/20 08:15:45;;;;;;;9.90;2.60;;;;;;;20.47;91.24;95285.81;1219405;75;3068460;-71
2023/10/20 08:18:17;;;;;;;9.65;2.80;;;;;;;20.54;90.81;95290.44;1223154;75;2927172;-72
2023/10/20 08:20:50;;;;;;;7.45;2.50;;;;;;;20.60;89.42;95287.31;1222980;75;2937887;-70
2023/10/20 08:23:23;;;;;;;11.05;3.30;;;;;;;20.74;89.63;95290.25;1223275;75;2938009;-72
2023/10/20 08:25:55;;;;;;;10.45;2.80;;;;;;;20.80;89.90;95280.19;1222730;75;2955505;-71
2023/10/20 08:28:28;;;;;;;10.25;3.00;;;;;;;20.86;88.24;95285.41;1223345;75;2918035;-71
2023/10/20 08:31:16;;;;;;;7.65;3.00;;;;;;;21.07;87.80;95298.50;1222727;75;2926237;-73
2023/10/20 08:33:49;;;;;;;;;;;;;;;21.05;85.85;95293.53;1224659;75;2926552;-73
2023/10/20 08:36:23;;;;;;;24.85;3.15;;;;;;;21.08;84.16;95296.44;1223228;75;2928647;-70
2023/10/20 08:38:56;;;;;;;14.70;4.10;;;;;;;21.13;83.51;95314.81;1223695;75;2930244;-73
2023/10/20 08:41:29;;;;;;;6.70;2.20;;;;;;;21.35;81.76;95335.59;1222990;75;2927929;-72
2023/10/20 08:44:02;;;;;;;8.65;2.35;;;;;;;21.37;80.21;95346.13;1222799;75;2932383;-70
2023/10/20 08:46:38;;;;;;;10.05;2.25;;;;;;;21.40;78.66;95345.66;1224114;75;2934110;-73
2023/10/20 08:49:12;;;;;;;12.60;2.80;;;;;;;21.45;77.21;95336.25;1222079;75;2930420;-73
2023/10/20 08:51:45;;;;;;;9.60;2.90;;;;;;;21.51;77.08;95335.88;1223394;75;2929744;-73
2023/10/20 08:54:19;;;;;;;7.90;2.40;;;;;;;21.43;76.88;95357.66;1223449;75;2924100;-73
2023/10/20 08:56:52;;;;;;;5.70;2.55;;;;;;;21.43;76.26;95336.13;1223632;75;2927803;-72
2023/10/20 08:59:25;;;;;;;12.70;2.55;;;;;;;21.40;75.63;95342.16;1222746;75;2923240;-73
2023/10/20 09:02:00;;;;;;;10.55;2.40;;;;;;;21.37;75.65;95355.22;1223184;75;2928888;-72
2023/10/20 09:04:33;;;;;;;8.95;2.50;;;;;;;21.39;75.96;95346.25;1223196;75;2931183;-70
2023/10/20 09:07:16;;;;;;;7.00;2.40;;;;;;;21.47;76.30;95346.75;1222616;68;2921761;-71
2023/10/20 09:09:49;;;;;;;8.35;2.45;;;;;;;21.31;76.58;95334.63;1222950;75;2922100;-73
2023/10/20 09:12:22;;;;;;;6.05;1.90;;;;;;;21.31;75.86;95343.72;1222924;75;2924984;-71
2023/10/20 09:14:56;;;;;;;10.95;2.50;;;;;;;21.30;75.45;95347.81;1223483;75;2940166;-72
2023/10/20 09:17:33;;;;;;;7.65;2.45;;;;;;;21.53;74.16;95344.34;1223018;75;2919813;-73
2023/10/20 09:20:13;;;;;;;5.00;1.80;;;;;;;21.51;74.23;95347.00;1223112;75;2922738;-71
2023/10/20 09:22:46;;;;;;;10.50;3.70;;;;;;;21.70;72.99;95359.94;1222946;75;2922305;-74
2023/10/20 09:25:19;;;;;;;6.95;2.20;;;;;;;21.94;71.86;95354.31;1222892;75;2927358;-70
2023/10/20 09:27:55;;;;;;;7.25;2.10;;;;;;;21.96;71.50;95346.06;1223395;75;2931556;-74
2023/10/20 09:30:28;;;;;;;12.50;2.90;;;;;;;21.98;70.12;95357.31;1220482;75;2979835;-72
2023/10/20 09:33:03;;;;;;;9.10;2.20;;;;;;;22.00;69.64;95349.09;1217345;75;3081223;-73
2023/10/20 09:35:39;;;;;;;8.95;2.00;;;;;;;22.11;69.46;95337.91;1223900;75;2917584;-71
2023/10/20 09:38:16;;;;;;;7.25;2.10;;;;;;;22.06;69.45;95344.59;1209314;75;4016097;-70
2023/10/20 09:40:50;;;;;;;5.90;2.00;;;;;;;22.19;67.91;95348.06;1224096;75;2934303;-74
2023/10/20 09:43:36;;;;;;;8.65;2.30;;;;;;;22.20;67.93;95333.53;1222512;75;2933801;-71
2023/10/20 09:46:23;;;;;;;6.10;1.80;;;;;;;22.32;67.23;95320.28;1221407;75;3041736;-71
2023/10/20 09:49:03;;;;;;;5.30;1.90;;;;;;;22.59;66.91;95310.56;1219208;75;3056503;-73
2023/10/20 09:51:37;;;;;;;7.90;2.85;;;;;;;22.55;66.73;95297.13;1223454;75;2920240;-75
2023/10/20 09:54:10;;;;;;;13.30;8.05;;;;;;;22.90;65.48;95287.81;1220733;75;3085363;-73
2023/10/20 09:56:44;;;;;;;4.30;2.05;;;;;;;23.13;64.19;95300.88;1219913;75;3031157;-72
2023/10/20 09:59:23;;;;;;;5.70;1.80;;;;;;;23.74;62.30;95294.88;1223255;75;2926366;-72
2023/10/20 10:01:58;;;;;;;7.70;2.15;;;;;;;24.31;61.40;95279.38;1223673;75;2941733;-73
2023/10/20 10:04:39;;;;;;;8.45;2.50;;;;;;;24.08;59.88;95292.31;1223041;75;2920926;-71
2023/10/20 10:07:13;;;;;;;6.10;2.40;;;;;;;24.36;60.54;95275.44;1217735;75;3066340;-74
2023/10/20 10:09:49;;;;;;;5.60;2.00;;;;;;;24.10;62.57;95280.50;1222744;75;2930344;-71
2023/10/20 10:12:23;;;;;;;4.40;1.70;;;;;;;24.61;63.24;95275.22;1223861;75;2921489;-75
2023/10/20 10:15:01;;;;;;;5.55;2.20;;;;;;;24.34;64.32;95275.31;1223993;75;2924700;-73
2023/10/20 10:17:34;;;;;;;5.70;2.10;;;;;;;24.27;64.49;95298.75;1224067;75;2923217;-72
2023/10/20 10:20:20;;;;;;;8.25;3.10;;;;;;;24.09;65.83;95307.00;1209085;75;4003394;-71
2023/10/20 10:23:03;;;;;;;7.00;2.90;;;;;;;24.22;66.94;95314.63;1224644;75;2923060;-74
2023/10/20 10:25:39;;;;;;;10.20;3.70;;;;;;;23.44;69.29;95310.81;1221287;75;3008968;-70
2023/10/20 10:28:14;;;;;;;9.15;3.10;;;;;;;23.37;69.91;95306.25;1221415;75;2924573;-72
2023/10/20 10:30:50;;;;;;;8.45;2.45;;;;;;;23.53;69.59;95318.25;1223276;75;2914777;-71
2023/10/20 10:33:26;;;;;;;7.20;2.80;;;;;;;23.17;70.95;95314.31;1221670;75;2993527;-73
2023/10/20 10:36:10;;;;;;;7.95;2.65;;;;;;;23.07;71.39;95311.72;1222824;75;2924864;-74
2023/10/20 10:38:47;;;;;;;5.75;2.40;;;;;;;23.13;72.54;95333.63;1223323;75;2927907;-72
2023/10/20 10:41:27;;;;;;;10.20;2.60;;;;;;;23.21;70.69;95311.75;1190560;75;5613843;-71
2023/10/20 10:44:00;;;;;;;10.50;3.30;;;;;;;23.61;69.09;95313.06;1223850;75;2921785;-74
2023/10/20 10:46:42;;;;;;;12.65;3.40;;;;;;;24.23;66.57;95302.81;1223332;75;2924371;-74
2023/10/20 10:49:16;;;;;;;10.30;2.90;;;;;;;24.06;66.17;95295.00;1223299;75;2924793;-73
2023/10/20 10:51:52;;;;;;;7.10;2.55;;;;;;;23.89;66.96;95285.13;1223449;75;2915506;-74
2023/10/20 10:54:26;;;;;;;10.50;2.80;;;;;;;24.33;65.97;95288.59;1221720;75;2920383;-72
2023/10/20 10:57:00;;;;;;;11.15;3.30;;;;;;;24.39;65.90;95296.53;1211790;75;3827963;-71
2023/10/20 10:59:33;;;;;;;6.75;2.25;;;;;;;24.85;64.55;95266.50;1222662;75;2930724;-71
2023/10/20 11:02:07;;;;;;;11.85;2.60;;;;;;;24.37;65.19;95274.81;1224175;75;2923780;-73
2023/10/20 11:04:39;;;;;;;7.35;2.60;;;;;;;24.22;65.15;95278.28;1222855;75;2922813;-71
2023/10/20 11:07:15;;;;;;;10.70;3.05;;;;;;;24.06;65.33;95283.13;1223450;75;2930223;-76
2023/10/20 11:09:48;;;;;;;8.45;2.65;;;;;;;23.96;64.81;95294.53;1224024;75;2926894;-75
2023/10/20 11:12:20;;;;;;;10.20;2.30;;;;;;;23.90;65.66;95299.81;1221895;75;2941973;-74
2023/10/20 11:14:53;;;;;;;11.55;3.70;;;;;;;23.88;65.81;95292.03;1219207;75;3062278;-73
2023/10/20 11:17:27;;;;;;;11.95;3.40;;;;;;;23.73;65.69;95282.25;1222576;75;2914299;-73
2023/10/20 11:20:01;;;;;;;7.90;2.60;;;;;;;23.85;63.76;95278.63;1219200;75;3020637;-71
2023/10/20 11:22:41;;;;;;;11.60;2.75;;;;;;;23.74;62.76;95282.97;1223506;75;2918269;-76
2023/10/20 11:25:22;;;;;;;8.60;3.85;;;;;;;24.18;61.54;95275.31;1223341;75;2932614;-72
2023/10/20 11:27:56;;;;;;;5.00;2.50;;;;;;;24.34;61.40;95283.72;1223930;75;2922794;-73
2023/10/20 11:30:31;;;;;;;9.45;2.95;;;;;;;24.11;59.24;95291.06;1219380;75;3037310;-76
2023/10/20 11:33:04;;;;;;;9.65;2.90;;;;;;;24.31;58.48;95280.09;1222678;75;2902751;-73
2023/10/20 11:35:36;;;;;;;10.95;3.40;;;;;;;24.05;57.71;95271.19;1219241;75;3091274;-74
2023/10/20 11:38:12;;;;;;;13.30;2.60;;;;;;;25.20;55.76;95262.41;1224031;75;2926134;-74
2023/10/20 11:40:47;;;;;;;6.60;2.20;;;;;;;26.11;53.93;95253.56;1205016;83;4025956;-73
2023/10/20 11:43:20;;;;;;;9.50;2.80;;;;;;;26.28;52.66;95254.91;1222552;75;2923309;-74
2023/10/20 11:45:53;;;;;;;13.90;3.10;;;;;;;25.50;54.48;95266.53;1223189;75;2927869;-73
2023/10/20 11:48:26;;;;;;;18.00;3.85;;;;;;;25.87;53.56;95258.94;1206817;75;4014315;-72
2023/10/20 11:50:58;;;;;;;9.25;2.95;;;;;;;25.69;54.09;95262.41;1223233;75;2932321;-73
2023/10/20 11:53:33;;;;;;;11.90;3.50;;;;;;;25.53;55.45;95270.13;1210499;75;3900548;-71
2023/10/20 11:56:06;;;;;;;12.30;2.75;;;;;;;25.99;55.95;95247.47;1221420;75;2951397;-74
2023/10/20 11:58:39;;;;;;;9.65;3.20;;;;;;;26.02;56.47;95252.50;1223833;75;2917086;-71
2023/10/20 12:01:12;;;;;;;11.00;3.40;;;;;;;26.10;56.64;95238.84;1219778;75;3120051;-71
2023/10/20 12:03:44;;;;;;;8.65;3.35;;;;;;;26.17;56.99;95219.44;1223796;75;2922911;-74
2023/10/20 12:06:17;;;;;;;14.20;3.35;;;;;;;26.21;56.48;95208.38;1222898;75;2923088;-76
2023/10/20 12:08:52;;;;;;;8.70;2.70;;;;;;;26.65;55.84;95214.22;1223833;75;2929199;-72
2023/10/20 12:11:25;;;;;;;9.05;3.50;;;;;;;26.72;56.15;95202.59;1222033;75;2930655;-72
2023/10/20 12:13:58;;;;;;;13.20;3.20;;;;;;;26.64;55.62;95191.06;1224471;75;2916545;-71
2023/10/20 12:16:31;;;;;;;10.55;2.70;;;;;;;26.96;56.19;95190.78;1222365;75;2918354;-74
2023/10/20 12:19:06;;;;;;;8.85;3.05;;;;;;;27.25;54.50;95183.38;1221359;75;3044678;-71